sensor_id;sensor_type;location;lat;lon;timestamp;P1;durP1;ratioP1;P2;durP2;ratioP2
51214;SDS011;63849;47.546;19.254;2022-11-14T00:00:44;79.53;;;51.75;;
51214;SDS011;63849;47.546;19.254;2022-11-14T00:03:11;83.22;;;51.00;;
51214;SDS011;63849;47.546;19.254;2022-11-14T00:05:38;78.22;;;50.13;;
51214;SDS011;63849;47.546;19.254;2022-11-14T00:08:05;81.20;;;50.58;;
51214;SDS011;63849;47.546;19.254;2022-11-14T00:10:37;71.07;;;47.58;;
51214;SDS011;63849;47.546;19.254;2022-11-14T00:13:05;80.65;;;50.78;;
51214;SDS011;63849;47.546;19.254;2022-11-14T00:15:31;75.00;;;49.38;;
51214;SDS011;63849;47.546;19.254;2022-11-14T00:17:57;79.13;;;50.97;;
51214;SDS011;63849;47.546;19.254;2022-11-14T00:20:23;105.75;;;66.07;;
51214;SDS011;63849;47.546;19.254;2022-11-14T00:22:49;93.32;;;64.00;;
51214;SDS011;63849;47.546;19.254;2022-11-14T00:25:15;76.18;;;54.97;;
51214;SDS011;63849;47.546;19.254;2022-11-14T00:27:41;73.03;;;51.13;;
51214;SDS011;63849;47.546;19.254;2022-11-14T00:30:07;70.20;;;46.65;;
51214;SDS011;63849;47.546;19.254;2022-11-14T00:32:32;85.82;;;44.40;;
51214;SDS011;63849;47.546;19.254;2022-11-14T00:35:01;90.22;;;41.88;;
51214;SDS011;63849;47.546;19.254;2022-11-14T00:37:27;222.40;;;45.55;;
51214;SDS011;63849;47.546;19.254;2022-11-14T00:39:53;55.58;;;39.53;;
51214;SDS011;63849;47.546;19.254;2022-11-14T00:42:18;63.55;;;40.30;;
51214;SDS011;63849;47.546;19.254;2022-11-14T00:44:47;68.78;;;40.33;;
51214;SDS011;63849;47.546;19.254;2022-11-14T00:47:15;127.68;;;40.92;;
51214;SDS011;63849;47.546;19.254;2022-11-14T00:49:41;241.00;;;46.22;;
51214;SDS011;63849;47.546;19.254;2022-11-14T00:52:06;53.05;;;37.95;;
51214;SDS011;63849;47.546;19.254;2022-11-14T00:54:32;51.50;;;37.80;;
51214;SDS011;63849;47.546;19.254;2022-11-14T00:56:58;50.47;;;37.63;;
51214;SDS011;63849;47.546;19.254;2022-11-14T00:59:24;66.80;;;38.28;;
51214;SDS011;63849;47.546;19.254;2022-11-14T01:01:49;103.50;;;43.53;;
51214;SDS011;63849;47.546;19.254;2022-11-14T01:04:15;74.00;;;41.70;;
51214;SDS011;63849;47.546;19.254;2022-11-14T01:06:41;65.82;;;39.67;;
51214;SDS011;63849;47.546;19.254;2022-11-14T01:09:07;53.17;;;38.22;;
51214;SDS011;63849;47.546;19.254;2022-11-14T01:11:36;44.17;;;34.63;;
51214;SDS011;63849;47.546;19.254;2022-11-14T01:14:04;38.78;;;31.13;;
51214;SDS011;63849;47.546;19.254;2022-11-14T01:16:31;40.88;;;31.33;;
51214;SDS011;63849;47.546;19.254;2022-11-14T01:19:00;38.90;;;31.48;;
51214;SDS011;63849;47.546;19.254;2022-11-14T01:21:30;65.28;;;32.63;;
51214;SDS011;63849;47.546;19.254;2022-11-14T01:23:56;74.07;;;43.78;;
51214;SDS011;63849;47.546;19.254;2022-11-14T01:26:22;53.60;;;37.35;;
51214;SDS011;63849;47.546;19.254;2022-11-14T01:28:48;79.53;;;38.78;;
51214;SDS011;63849;47.546;19.254;2022-11-14T01:31:15;56.03;;;39.33;;
51214;SDS011;63849;47.546;19.254;2022-11-14T01:33:47;61.90;;;36.92;;
51214;SDS011;63849;47.546;19.254;2022-11-14T01:36:14;53.72;;;35.40;;
51214;SDS011;63849;47.546;19.254;2022-11-14T01:38:40;42.65;;;32.58;;
51214;SDS011;63849;47.546;19.254;2022-11-14T01:41:09;42.45;;;34.10;;
51214;SDS011;63849;47.546;19.254;2022-11-14T01:43:38;41.58;;;32.88;;
51214;SDS011;63849;47.546;19.254;2022-11-14T01:46:06;39.53;;;30.02;;
51214;SDS011;63849;47.546;19.254;2022-11-14T01:54:28;64.03;;;41.50;;
51214;SDS011;63849;47.546;19.254;2022-11-14T01:56:57;52.97;;;36.90;;
51214;SDS011;63849;47.546;19.254;2022-11-14T01:59:33;47.10;;;33.00;;
51214;SDS011;63849;47.546;19.254;2022-11-14T02:02:07;39.67;;;29.73;;
51214;SDS011;63849;47.546;19.254;2022-11-14T02:04:41;37.17;;;28.17;;
51214;SDS011;63849;47.546;19.254;2022-11-14T02:07:11;36.92;;;28.60;;
51214;SDS011;63849;47.546;19.254;2022-11-14T02:09:38;53.50;;;33.53;;
51214;SDS011;63849;47.546;19.254;2022-11-14T02:12:07;46.83;;;31.65;;
51214;SDS011;63849;47.546;19.254;2022-11-14T02:14:36;44.28;;;32.53;;
51214;SDS011;63849;47.546;19.254;2022-11-14T02:17:02;44.17;;;32.03;;
51214;SDS011;63849;47.546;19.254;2022-11-14T02:22:12;41.53;;;31.60;;
51214;SDS011;63849;47.546;19.254;2022-11-14T02:24:38;48.47;;;33.45;;
51214;SDS011;63849;47.546;19.254;2022-11-14T02:27:04;50.65;;;34.20;;
51214;SDS011;63849;47.546;19.254;2022-11-14T02:29:33;50.95;;;34.53;;
51214;SDS011;63849;47.546;19.254;2022-11-14T02:32:00;49.70;;;33.42;;
51214;SDS011;63849;47.546;19.254;2022-11-14T02:34:26;46.45;;;33.00;;
51214;SDS011;63849;47.546;19.254;2022-11-14T02:36:51;44.55;;;31.85;;
51214;SDS011;63849;47.546;19.254;2022-11-14T02:39:18;42.38;;;31.10;;
51214;SDS011;63849;47.546;19.254;2022-11-14T02:41:43;41.53;;;30.27;;
51214;SDS011;63849;47.546;19.254;2022-11-14T02:44:09;42.00;;;30.38;;
51214;SDS011;63849;47.546;19.254;2022-11-14T02:46:35;48.63;;;33.25;;
51214;SDS011;63849;47.546;19.254;2022-11-14T02:49:01;44.28;;;31.60;;
51214;SDS011;63849;47.546;19.254;2022-11-14T02:51:27;53.33;;;34.88;;
51214;SDS011;63849;47.546;19.254;2022-11-14T02:53:53;48.47;;;32.08;;
51214;SDS011;63849;47.546;19.254;2022-11-14T02:56:18;46.45;;;32.63;;
51214;SDS011;63849;47.546;19.254;2022-11-14T02:58:44;44.30;;;29.77;;
51214;SDS011;63849;47.546;19.254;2022-11-14T03:01:10;48.63;;;31.40;;
51214;SDS011;63849;47.546;19.254;2022-11-14T03:03:36;41.67;;;28.92;;
51214;SDS011;63849;47.546;19.254;2022-11-14T03:06:02;45.55;;;31.50;;
51214;SDS011;63849;47.546;19.254;2022-11-14T03:08:31;36.22;;;27.55;;
51214;SDS011;63849;47.546;19.254;2022-11-14T03:11:04;33.70;;;25.55;;
51214;SDS011;63849;47.546;19.254;2022-11-14T03:13:33;32.55;;;25.67;;
51214;SDS011;63849;47.546;19.254;2022-11-14T03:16:06;38.70;;;25.63;;
51214;SDS011;63849;47.546;19.254;2022-11-14T03:18:38;34.25;;;24.73;;
51214;SDS011;63849;47.546;19.254;2022-11-14T03:21:06;28.10;;;23.30;;
51214;SDS011;63849;47.546;19.254;2022-11-14T03:23:32;26.85;;;23.20;;
51214;SDS011;63849;47.546;19.254;2022-11-14T03:26:02;28.38;;;22.75;;
51214;SDS011;63849;47.546;19.254;2022-11-14T03:28:30;25.92;;;22.60;;
51214;SDS011;63849;47.546;19.254;2022-11-14T03:30:56;26.65;;;22.35;;
51214;SDS011;63849;47.546;19.254;2022-11-14T03:33:22;41.20;;;28.70;;
51214;SDS011;63849;47.546;19.254;2022-11-14T03:35:51;40.60;;;30.63;;
51214;SDS011;63849;47.546;19.254;2022-11-14T03:38:17;32.88;;;25.85;;
51214;SDS011;63849;47.546;19.254;2022-11-14T03:40:47;37.97;;;29.00;;
51214;SDS011;63849;47.546;19.254;2022-11-14T03:43:14;40.28;;;30.15;;
51214;SDS011;63849;47.546;19.254;2022-11-14T03:45:43;31.40;;;25.38;;
51214;SDS011;63849;47.546;19.254;2022-11-14T03:48:09;29.67;;;25.73;;
51214;SDS011;63849;47.546;19.254;2022-11-14T03:50:35;29.85;;;24.48;;
51214;SDS011;63849;47.546;19.254;2022-11-14T03:53:01;28.42;;;23.73;;
51214;SDS011;63849;47.546;19.254;2022-11-14T03:55:27;46.95;;;33.55;;
51214;SDS011;63849;47.546;19.254;2022-11-14T03:57:53;32.28;;;25.50;;
51214;SDS011;63849;47.546;19.254;2022-11-14T04:00:19;36.83;;;28.20;;
51214;SDS011;63849;47.546;19.254;2022-11-14T04:02:45;36.03;;;28.33;;
51214;SDS011;63849;47.546;19.254;2022-11-14T04:05:12;32.42;;;26.10;;
51214;SDS011;63849;47.546;19.254;2022-11-14T04:07:38;36.90;;;29.08;;
51214;SDS011;63849;47.546;19.254;2022-11-14T04:10:04;32.30;;;26.30;;
51214;SDS011;63849;47.546;19.254;2022-11-14T04:12:31;33.47;;;26.63;;
51214;SDS011;63849;47.546;19.254;2022-11-14T04:14:57;30.67;;;24.63;;
51214;SDS011;63849;47.546;19.254;2022-11-14T04:17:23;29.35;;;24.98;;
51214;SDS011;63849;47.546;19.254;2022-11-14T04:19:48;28.00;;;22.15;;
51214;SDS011;63849;47.546;19.254;2022-11-14T04:22:17;29.17;;;23.33;;
51214;SDS011;63849;47.546;19.254;2022-11-14T04:24:43;30.73;;;23.77;;
51214;SDS011;63849;47.546;19.254;2022-11-14T04:27:09;28.95;;;24.10;;
51214;SDS011;63849;47.546;19.254;2022-11-14T04:29:35;27.40;;;22.40;;
51214;SDS011;63849;47.546;19.254;2022-11-14T04:32:03;31.02;;;22.33;;
51214;SDS011;63849;47.546;19.254;2022-11-14T04:34:29;28.85;;;22.80;;
51214;SDS011;63849;47.546;19.254;2022-11-14T04:36:57;29.08;;;22.90;;
51214;SDS011;63849;47.546;19.254;2022-11-14T04:39:23;31.65;;;23.67;;
51214;SDS011;63849;47.546;19.254;2022-11-14T04:41:49;29.05;;;22.88;;
51214;SDS011;63849;47.546;19.254;2022-11-14T04:44:15;35.80;;;26.25;;
51214;SDS011;63849;47.546;19.254;2022-11-14T04:46:41;31.40;;;24.67;;
51214;SDS011;63849;47.546;19.254;2022-11-14T04:49:06;30.35;;;22.92;;
51214;SDS011;63849;47.546;19.254;2022-11-14T04:51:32;28.02;;;23.20;;
51214;SDS011;63849;47.546;19.254;2022-11-14T04:53:58;26.27;;;21.55;;
51214;SDS011;63849;47.546;19.254;2022-11-14T04:56:24;30.58;;;23.50;;
51214;SDS011;63849;47.546;19.254;2022-11-14T04:58:50;31.23;;;24.38;;
51214;SDS011;63849;47.546;19.254;2022-11-14T05:01:15;28.00;;;22.00;;
51214;SDS011;63849;47.546;19.254;2022-11-14T05:03:41;31.60;;;22.00;;
51214;SDS011;63849;47.546;19.254;2022-11-14T05:06:08;26.95;;;22.15;;
51214;SDS011;63849;47.546;19.254;2022-11-14T05:08:34;28.80;;;23.17;;
51214;SDS011;63849;47.546;19.254;2022-11-14T05:11:00;31.50;;;24.13;;
51214;SDS011;63849;47.546;19.254;2022-11-14T05:13:26;27.48;;;22.05;;
51214;SDS011;63849;47.546;19.254;2022-11-14T05:15:52;27.73;;;21.80;;
51214;SDS011;63849;47.546;19.254;2022-11-14T05:18:17;27.30;;;21.80;;
51214;SDS011;63849;47.546;19.254;2022-11-14T05:20:43;26.98;;;21.17;;
51214;SDS011;63849;47.546;19.254;2022-11-14T05:23:14;27.23;;;22.05;;
51214;SDS011;63849;47.546;19.254;2022-11-14T05:25:57;30.90;;;23.05;;
51214;SDS011;63849;47.546;19.254;2022-11-14T05:28:24;32.85;;;24.67;;
51214;SDS011;63849;47.546;19.254;2022-11-14T05:30:50;34.40;;;24.95;;
51214;SDS011;63849;47.546;19.254;2022-11-14T05:33:18;40.95;;;26.90;;
51214;SDS011;63849;47.546;19.254;2022-11-14T05:35:44;50.20;;;31.33;;
51214;SDS011;63849;47.546;19.254;2022-11-14T05:38:10;72.68;;;36.63;;
51214;SDS011;63849;47.546;19.254;2022-11-14T05:40:38;55.67;;;30.50;;
51214;SDS011;63849;47.546;19.254;2022-11-14T05:43:06;40.35;;;25.73;;
51214;SDS011;63849;47.546;19.254;2022-11-14T05:45:34;28.48;;;22.42;;
51214;SDS011;63849;47.546;19.254;2022-11-14T05:48:00;23.60;;;20.35;;
51214;SDS011;63849;47.546;19.254;2022-11-14T05:50:26;29.85;;;23.23;;
51214;SDS011;63849;47.546;19.254;2022-11-14T05:52:52;25.77;;;21.42;;
51214;SDS011;63849;47.546;19.254;2022-11-14T05:55:18;37.10;;;27.38;;
51214;SDS011;63849;47.546;19.254;2022-11-14T05:57:44;41.83;;;28.48;;
51214;SDS011;63849;47.546;19.254;2022-11-14T06:00:10;40.17;;;30.25;;
51214;SDS011;63849;47.546;19.254;2022-11-14T06:02:36;47.42;;;34.95;;
51214;SDS011;63849;47.546;19.254;2022-11-14T06:05:02;53.72;;;39.03;;
51214;SDS011;63849;47.546;19.254;2022-11-14T06:07:31;61.97;;;41.25;;
51214;SDS011;63849;47.546;19.254;2022-11-14T06:09:57;61.05;;;42.90;;
51214;SDS011;63849;47.546;19.254;2022-11-14T06:12:23;60.50;;;42.58;;
51214;SDS011;63849;47.546;19.254;2022-11-14T06:14:51;71.82;;;45.63;;
51214;SDS011;63849;47.546;19.254;2022-11-14T06:17:16;62.28;;;41.72;;
51214;SDS011;63849;47.546;19.254;2022-11-14T06:19:45;69.43;;;42.17;;
51214;SDS011;63849;47.546;19.254;2022-11-14T06:22:13;67.32;;;43.33;;
51214;SDS011;63849;47.546;19.254;2022-11-14T06:24:39;70.47;;;42.15;;
51214;SDS011;63849;47.546;19.254;2022-11-14T06:27:05;63.92;;;41.22;;
51214;SDS011;63849;47.546;19.254;2022-11-14T06:29:31;58.05;;;41.47;;
51214;SDS011;63849;47.546;19.254;2022-11-14T06:31:57;176.93;;;117.65;;
51214;SDS011;63849;47.546;19.254;2022-11-14T06:34:22;146.98;;;104.13;;
51214;SDS011;63849;47.546;19.254;2022-11-14T06:36:51;104.20;;;78.57;;
51214;SDS011;63849;47.546;19.254;2022-11-14T06:39:17;80.07;;;62.10;;
51214;SDS011;63849;47.546;19.254;2022-11-14T06:41:45;79.72;;;57.00;;
51214;SDS011;63849;47.546;19.254;2022-11-14T06:44:11;66.00;;;47.28;;
51214;SDS011;63849;47.546;19.254;2022-11-14T06:46:49;63.55;;;43.20;;
51214;SDS011;63849;47.546;19.254;2022-11-14T06:49:15;59.20;;;41.45;;
51214;SDS011;63849;47.546;19.254;2022-11-14T06:51:51;60.42;;;43.63;;
51214;SDS011;63849;47.546;19.254;2022-11-14T06:54:26;62.95;;;49.30;;
51214;SDS011;63849;47.546;19.254;2022-11-14T06:56:54;65.35;;;46.47;;
51214;SDS011;63849;47.546;19.254;2022-11-14T06:59:44;60.08;;;44.20;;
51214;SDS011;63849;47.546;19.254;2022-11-14T07:02:12;58.40;;;43.75;;
51214;SDS011;63849;47.546;19.254;2022-11-14T07:04:48;75.65;;;53.10;;
51214;SDS011;63849;47.546;19.254;2022-11-14T07:07:44;75.30;;;52.90;;
51214;SDS011;63849;47.546;19.254;2022-11-14T07:10:19;70.05;;;47.42;;
51214;SDS011;63849;47.546;19.254;2022-11-14T07:12:48;70.15;;;45.72;;
51214;SDS011;63849;47.546;19.254;2022-11-14T07:15:21;73.78;;;52.45;;
51214;SDS011;63849;47.546;19.254;2022-11-14T07:17:52;81.70;;;59.08;;
51214;SDS011;63849;47.546;19.254;2022-11-14T07:20:21;70.40;;;53.63;;
51214;SDS011;63849;47.546;19.254;2022-11-14T07:22:50;61.83;;;45.13;;
51214;SDS011;63849;47.546;19.254;2022-11-14T07:25:34;59.72;;;41.65;;
51214;SDS011;63849;47.546;19.254;2022-11-14T07:28:16;56.25;;;39.28;;
51214;SDS011;63849;47.546;19.254;2022-11-14T07:30:42;57.78;;;44.28;;
51214;SDS011;63849;47.546;19.254;2022-11-14T07:33:08;55.75;;;38.10;;
51214;SDS011;63849;47.546;19.254;2022-11-14T07:35:44;54.10;;;39.28;;
51214;SDS011;63849;47.546;19.254;2022-11-14T07:38:17;56.35;;;38.17;;
51214;SDS011;63849;47.546;19.254;2022-11-14T07:40:59;53.20;;;38.47;;
51214;SDS011;63849;47.546;19.254;2022-11-14T07:43:31;55.20;;;40.75;;
51214;SDS011;63849;47.546;19.254;2022-11-14T07:46:00;59.30;;;40.40;;
51214;SDS011;63849;47.546;19.254;2022-11-14T07:48:44;54.97;;;38.17;;
51214;SDS011;63849;47.546;19.254;2022-11-14T07:51:19;57.13;;;37.67;;
51214;SDS011;63849;47.546;19.254;2022-11-14T07:58:12;50.40;;;36.17;;
51214;SDS011;63849;47.546;19.254;2022-11-14T08:00:43;55.90;;;39.83;;
51214;SDS011;63849;47.546;19.254;2022-11-14T08:03:20;53.85;;;38.65;;
51214;SDS011;63849;47.546;19.254;2022-11-14T08:05:49;52.88;;;38.70;;
51214;SDS011;63849;47.546;19.254;2022-11-14T08:08:30;49.58;;;37.22;;
51214;SDS011;63849;47.546;19.254;2022-11-14T08:11:04;49.58;;;37.90;;
51214;SDS011;63849;47.546;19.254;2022-11-14T08:14:22;50.67;;;37.28;;
51214;SDS011;63849;47.546;19.254;2022-11-14T08:17:02;46.22;;;34.58;;
51214;SDS011;63849;47.546;19.254;2022-11-14T08:19:40;47.42;;;33.97;;
51214;SDS011;63849;47.546;19.254;2022-11-14T08:22:08;45.28;;;34.33;;
51214;SDS011;63849;47.546;19.254;2022-11-14T08:24:37;44.75;;;33.60;;
51214;SDS011;63849;47.546;19.254;2022-11-14T08:30:00;48.42;;;34.50;;
51214;SDS011;63849;47.546;19.254;2022-11-14T08:32:32;47.85;;;34.67;;
51214;SDS011;63849;47.546;19.254;2022-11-14T08:35:02;44.55;;;32.78;;
51214;SDS011;63849;47.546;19.254;2022-11-14T08:37:38;44.70;;;34.35;;
51214;SDS011;63849;47.546;19.254;2022-11-14T08:40:17;45.85;;;35.00;;
51214;SDS011;63849;47.546;19.254;2022-11-14T08:42:43;43.47;;;34.05;;
51214;SDS011;63849;47.546;19.254;2022-11-14T08:45:19;40.55;;;31.90;;
51214;SDS011;63849;47.546;19.254;2022-11-14T08:47:51;46.00;;;33.13;;
51214;SDS011;63849;47.546;19.254;2022-11-14T08:50:20;44.50;;;30.60;;
51214;SDS011;63849;47.546;19.254;2022-11-14T08:52:51;45.13;;;33.08;;
51214;SDS011;63849;47.546;19.254;2022-11-14T08:55:22;39.97;;;32.38;;
51214;SDS011;63849;47.546;19.254;2022-11-14T08:57:54;42.20;;;31.48;;
51214;SDS011;63849;47.546;19.254;2022-11-14T09:00:22;39.53;;;31.02;;
51214;SDS011;63849;47.546;19.254;2022-11-14T09:02:51;44.17;;;32.90;;
51214;SDS011;63849;47.546;19.254;2022-11-14T09:09:19;40.60;;;29.92;;
51214;SDS011;63849;47.546;19.254;2022-11-14T09:11:47;43.60;;;31.08;;
51214;SDS011;63849;47.546;19.254;2022-11-14T09:14:16;39.88;;;30.20;;
51214;SDS011;63849;47.546;19.254;2022-11-14T09:19:52;40.05;;;30.63;;
51214;SDS011;63849;47.546;19.254;2022-11-14T09:22:25;41.00;;;29.80;;
51214;SDS011;63849;47.546;19.254;2022-11-14T09:27:45;39.97;;;30.60;;
51214;SDS011;63849;47.546;19.254;2022-11-14T09:30:16;37.75;;;29.38;;
51214;SDS011;63849;47.546;19.254;2022-11-14T09:33:04;37.03;;;28.70;;
51214;SDS011;63849;47.546;19.254;2022-11-14T09:35:55;37.20;;;29.48;;
51214;SDS011;63849;47.546;19.254;2022-11-14T09:38:35;36.97;;;28.95;;
51214;SDS011;63849;47.546;19.254;2022-11-14T09:47:42;37.08;;;27.15;;
51214;SDS011;63849;47.546;19.254;2022-11-14T09:53:38;36.03;;;26.80;;
51214;SDS011;63849;47.546;19.254;2022-11-14T09:56:24;30.77;;;26.13;;
51214;SDS011;63849;47.546;19.254;2022-11-14T09:58:59;35.67;;;26.70;;
51214;SDS011;63849;47.546;19.254;2022-11-14T10:01:57;32.13;;;26.05;;
51214;SDS011;63849;47.546;19.254;2022-11-14T10:16:27;32.38;;;26.75;;
51214;SDS011;63849;47.546;19.254;2022-11-14T10:23:18;34.78;;;26.85;;
51214;SDS011;63849;47.546;19.254;2022-11-14T10:26:14;32.28;;;26.35;;
51214;SDS011;63849;47.546;19.254;2022-11-14T10:35:49;28.67;;;24.08;;
51214;SDS011;63849;47.546;19.254;2022-11-14T10:42:43;32.88;;;25.33;;
51214;SDS011;63849;47.546;19.254;2022-11-14T10:49:20;25.15;;;22.33;;
51214;SDS011;63849;47.546;19.254;2022-11-14T10:51:54;28.48;;;22.35;;
51214;SDS011;63849;47.546;19.254;2022-11-14T10:54:29;31.23;;;23.08;;
51214;SDS011;63849;47.546;19.254;2022-11-14T11:00:56;28.23;;;22.45;;
51214;SDS011;63849;47.546;19.254;2022-11-14T11:08:11;32.78;;;23.08;;
51214;SDS011;63849;47.546;19.254;2022-11-14T11:11:38;30.83;;;23.03;;
51214;SDS011;63849;47.546;19.254;2022-11-14T11:21:21;25.52;;;21.25;;
51214;SDS011;63849;47.546;19.254;2022-11-14T11:24:55;55.15;;;30.67;;
51214;SDS011;63849;47.546;19.254;2022-11-14T11:28:30;41.25;;;26.58;;
51214;SDS011;63849;47.546;19.254;2022-11-14T11:31:27;28.55;;;21.38;;
51214;SDS011;63849;47.546;19.254;2022-11-14T11:34:42;26.60;;;20.85;;
51214;SDS011;63849;47.546;19.254;2022-11-14T11:37:42;26.25;;;20.70;;
51214;SDS011;63849;47.546;19.254;2022-11-14T11:40:38;29.10;;;21.80;;
51214;SDS011;63849;47.546;19.254;2022-11-14T11:43:29;28.90;;;21.42;;
51214;SDS011;63849;47.546;19.254;2022-11-14T11:45:58;25.58;;;19.90;;
51214;SDS011;63849;47.546;19.254;2022-11-14T11:48:38;29.20;;;22.17;;
51214;SDS011;63849;47.546;19.254;2022-11-14T11:51:17;21.70;;;18.02;;
51214;SDS011;63849;47.546;19.254;2022-11-14T11:56:44;21.58;;;18.20;;
51214;SDS011;63849;47.546;19.254;2022-11-14T11:59:31;23.15;;;18.75;;
51214;SDS011;63849;47.546;19.254;2022-11-14T12:02:22;23.48;;;18.83;;
51214;SDS011;63849;47.546;19.254;2022-11-14T12:08:20;18.23;;;16.00;;
51214;SDS011;63849;47.546;19.254;2022-11-14T12:11:03;20.15;;;15.35;;
51214;SDS011;63849;47.546;19.254;2022-11-14T12:13:53;19.83;;;14.63;;
51214;SDS011;63849;47.546;19.254;2022-11-14T12:20:20;14.73;;;12.27;;
51214;SDS011;63849;47.546;19.254;2022-11-14T12:23:10;16.48;;;11.82;;
51214;SDS011;63849;47.546;19.254;2022-11-14T12:32:05;15.65;;;12.77;;
51214;SDS011;63849;47.546;19.254;2022-11-14T12:34:45;16.05;;;12.60;;
51214;SDS011;63849;47.546;19.254;2022-11-14T12:37:49;17.08;;;12.63;;
51214;SDS011;63849;47.546;19.254;2022-11-14T12:40:34;17.25;;;13.35;;
51214;SDS011;63849;47.546;19.254;2022-11-14T13:06:10;17.70;;;14.82;;
51214;SDS011;63849;47.546;19.254;2022-11-14T13:18:48;16.95;;;13.45;;
51214;SDS011;63849;47.546;19.254;2022-11-14T13:25:15;16.00;;;13.27;;
51214;SDS011;63849;47.546;19.254;2022-11-14T13:27:51;15.57;;;13.27;;
51214;SDS011;63849;47.546;19.254;2022-11-14T13:33:49;19.90;;;14.05;;
51214;SDS011;63849;47.546;19.254;2022-11-14T13:49:58;17.42;;;13.60;;
51214;SDS011;63849;47.546;19.254;2022-11-14T13:52:51;16.27;;;13.48;;
51214;SDS011;63849;47.546;19.254;2022-11-14T13:55:31;19.75;;;14.50;;
51214;SDS011;63849;47.546;19.254;2022-11-14T13:58:23;17.42;;;14.93;;
51214;SDS011;63849;47.546;19.254;2022-11-14T14:10:22;32.90;;;22.42;;
51214;SDS011;63849;47.546;19.254;2022-11-14T14:16:04;24.00;;;18.50;;
51214;SDS011;63849;47.546;19.254;2022-11-14T14:19:11;27.35;;;21.05;;
51214;SDS011;63849;47.546;19.254;2022-11-14T14:22:21;18.55;;;15.30;;
51214;SDS011;63849;47.546;19.254;2022-11-14T14:25:39;20.60;;;16.30;;
51214;SDS011;63849;47.546;19.254;2022-11-14T14:28:24;25.60;;;18.25;;
51214;SDS011;63849;47.546;19.254;2022-11-14T14:33:55;24.73;;;18.90;;
51214;SDS011;63849;47.546;19.254;2022-11-14T14:36:50;23.65;;;18.58;;
51214;SDS011;63849;47.546;19.254;2022-11-14T14:39:25;26.50;;;20.15;;
51214;SDS011;63849;47.546;19.254;2022-11-14T14:42:34;25.65;;;19.85;;
51214;SDS011;63849;47.546;19.254;2022-11-14T14:45:22;23.85;;;18.60;;
51214;SDS011;63849;47.546;19.254;2022-11-14T14:48:30;20.05;;;17.92;;
51214;SDS011;63849;47.546;19.254;2022-11-14T14:51:16;24.08;;;18.27;;
51214;SDS011;63849;47.546;19.254;2022-11-14T14:54:17;23.88;;;18.98;;
51214;SDS011;63849;47.546;19.254;2022-11-14T14:56:57;27.48;;;20.63;;
51214;SDS011;63849;47.546;19.254;2022-11-14T14:59:28;25.70;;;19.92;;
51214;SDS011;63849;47.546;19.254;2022-11-14T15:02:00;32.40;;;23.45;;
51214;SDS011;63849;47.546;19.254;2022-11-14T15:04:26;33.97;;;24.75;;
51214;SDS011;63849;47.546;19.254;2022-11-14T15:07:03;35.88;;;27.25;;
51214;SDS011;63849;47.546;19.254;2022-11-14T15:09:39;36.13;;;28.58;;
51214;SDS011;63849;47.546;19.254;2022-11-14T15:12:42;37.72;;;28.23;;
51214;SDS011;63849;47.546;19.254;2022-11-14T15:15:25;35.42;;;27.33;;
51214;SDS011;63849;47.546;19.254;2022-11-14T15:18:21;34.83;;;28.48;;
51214;SDS011;63849;47.546;19.254;2022-11-14T15:23:56;38.70;;;32.30;;
51214;SDS011;63849;47.546;19.254;2022-11-14T15:26:53;40.03;;;32.80;;
51214;SDS011;63849;47.546;19.254;2022-11-14T15:29:49;46.50;;;35.58;;
51214;SDS011;63849;47.546;19.254;2022-11-14T15:32:35;49.95;;;35.05;;
51214;SDS011;63849;47.546;19.254;2022-11-14T15:35:08;49.83;;;36.17;;
51214;SDS011;63849;47.546;19.254;2022-11-14T15:40:37;59.72;;;40.53;;
51214;SDS011;63849;47.546;19.254;2022-11-14T15:47:58;42.95;;;30.75;;
51214;SDS011;63849;47.546;19.254;2022-11-14T15:50:33;36.70;;;28.90;;
51214;SDS011;63849;47.546;19.254;2022-11-14T15:53:05;38.53;;;29.60;;
51214;SDS011;63849;47.546;19.254;2022-11-14T15:55:41;41.95;;;29.90;;
51214;SDS011;63849;47.546;19.254;2022-11-14T15:58:10;35.10;;;26.83;;
51214;SDS011;63849;47.546;19.254;2022-11-14T16:00:47;39.22;;;28.98;;
51214;SDS011;63849;47.546;19.254;2022-11-14T16:03:16;37.30;;;28.73;;
51214;SDS011;63849;47.546;19.254;2022-11-14T16:13:12;40.63;;;29.27;;
51214;SDS011;63849;47.546;19.254;2022-11-14T16:38:40;102.57;;;60.50;;
51214;SDS011;63849;47.546;19.254;2022-11-14T16:41:35;135.85;;;73.47;;
51214;SDS011;63849;47.546;19.254;2022-11-14T16:52:18;48.58;;;34.65;;
51214;SDS011;63849;47.546;19.254;2022-11-14T16:59:54;67.40;;;45.70;;
51214;SDS011;63849;47.546;19.254;2022-11-14T17:03:12;57.53;;;42.25;;
51214;SDS011;63849;47.546;19.254;2022-11-14T17:32:36;103.22;;;68.95;;
51214;SDS011;63849;47.546;19.254;2022-11-14T17:35:29;119.85;;;78.88;;
51214;SDS011;63849;47.546;19.254;2022-11-14T17:42:29;147.57;;;95.22;;
51214;SDS011;63849;47.546;19.254;2022-11-14T17:45:25;158.50;;;98.85;;
51214;SDS011;63849;47.546;19.254;2022-11-14T17:48:55;200.45;;;116.40;;
51214;SDS011;63849;47.546;19.254;2022-11-14T17:57:33;101.03;;;64.40;;
51214;SDS011;63849;47.546;19.254;2022-11-14T18:00:27;84.53;;;55.50;;
51214;SDS011;63849;47.546;19.254;2022-11-14T18:02:53;90.32;;;62.03;;
51214;SDS011;63849;47.546;19.254;2022-11-14T18:05:18;87.97;;;60.70;;
51214;SDS011;63849;47.546;19.254;2022-11-14T18:07:46;82.22;;;55.80;;
51214;SDS011;63849;47.546;19.254;2022-11-14T18:28:30;85.88;;;51.83;;
51214;SDS011;63849;47.546;19.254;2022-11-14T18:31:18;104.50;;;63.58;;
51214;SDS011;63849;47.546;19.254;2022-11-14T18:33:46;116.18;;;71.28;;
51214;SDS011;63849;47.546;19.254;2022-11-14T18:36:17;117.43;;;76.45;;
51214;SDS011;63849;47.546;19.254;2022-11-14T18:38:54;88.18;;;57.90;;
51214;SDS011;63849;47.546;19.254;2022-11-14T18:41:34;85.13;;;58.17;;
51214;SDS011;63849;47.546;19.254;2022-11-14T18:44:10;70.68;;;51.22;;
51214;SDS011;63849;47.546;19.254;2022-11-14T18:46:57;59.03;;;40.65;;
51214;SDS011;63849;47.546;19.254;2022-11-14T18:49:48;50.22;;;37.97;;
51214;SDS011;63849;47.546;19.254;2022-11-14T18:52:25;50.65;;;37.15;;
51214;SDS011;63849;47.546;19.254;2022-11-14T18:54:58;48.38;;;36.60;;
51214;SDS011;63849;47.546;19.254;2022-11-14T19:00:36;50.78;;;35.75;;
51214;SDS011;63849;47.546;19.254;2022-11-14T19:03:13;45.08;;;32.55;;
51214;SDS011;63849;47.546;19.254;2022-11-14T19:05:46;44.60;;;33.97;;
51214;SDS011;63849;47.546;19.254;2022-11-14T19:08:47;49.58;;;37.80;;
51214;SDS011;63849;47.546;19.254;2022-11-14T19:11:32;58.88;;;42.08;;
51214;SDS011;63849;47.546;19.254;2022-11-14T19:14:22;69.07;;;50.05;;
51214;SDS011;63849;47.546;19.254;2022-11-14T19:20:00;77.07;;;56.70;;
51214;SDS011;63849;47.546;19.254;2022-11-14T19:22:35;86.35;;;64.05;;
51214;SDS011;63849;47.546;19.254;2022-11-14T19:25:25;103.78;;;73.15;;
51214;SDS011;63849;47.546;19.254;2022-11-14T19:28:15;91.45;;;62.30;;
51214;SDS011;63849;47.546;19.254;2022-11-14T19:31:24;77.28;;;55.50;;
51214;SDS011;63849;47.546;19.254;2022-11-14T19:34:00;63.42;;;47.88;;